createdAt,value
2018-10-03T00:02:00.811Z,4.53
2018-10-03T00:04:31.561Z,4.67
2018-10-03T00:07:02.499Z,4.10
2018-10-03T00:09:32.475Z,4.60
2018-10-03T00:12:02.402Z,4.77
2018-10-03T00:14:33.712Z,4.30
2018-10-03T00:17:06.011Z,4.47
2018-10-03T00:19:37.038Z,4.90
2018-10-03T00:22:10.242Z,3.90
2018-10-03T00:24:41.864Z,4.03
2018-10-03T00:27:11.873Z,4.40
2018-10-03T00:29:44.537Z,4.57
2018-10-03T00:32:15.187Z,4.27
2018-10-03T00:34:45.198Z,4.27
2018-10-03T00:37:16.245Z,4.27
2018-10-03T00:39:48.139Z,3.67
2018-10-03T00:42:19.127Z,4.30
2018-10-03T00:44:57.431Z,4.33
2018-10-03T00:47:28.044Z,4.20
2018-10-03T00:49:59.420Z,3.83
2018-10-03T00:52:29.973Z,3.47
2018-10-03T00:55:00.455Z,4.17
2018-10-03T00:57:31.913Z,3.53
2018-10-03T01:00:02.408Z,4.30
2018-10-03T01:02:32.140Z,3.67
2018-10-03T01:05:02.570Z,3.57
2018-10-03T01:07:32.943Z,3.30
2018-10-03T01:10:03.422Z,3.10
2018-10-03T01:12:33.164Z,3.70
2018-10-03T01:15:02.932Z,4.07
2018-10-03T01:17:33.867Z,3.17
2018-10-03T01:20:03.637Z,4.17
2018-10-03T01:22:34.200Z,3.30
2018-10-03T01:25:05.441Z,3.80
2018-10-03T01:27:36.497Z,4.10
2018-10-03T01:30:06.970Z,3.83
2018-10-03T01:32:38.164Z,3.87
2018-10-03T01:35:09.064Z,3.53
2018-10-03T01:37:38.948Z,3.87
2018-10-03T01:40:09.822Z,4.00
2018-10-03T01:42:40.517Z,3.37
2018-10-03T01:45:10.687Z,3.73
2018-10-03T01:47:42.052Z,3.73
2018-10-03T01:50:12.954Z,4.50
2018-10-03T01:52:44.100Z,4.20
2018-10-03T01:55:15.094Z,4.70
2018-10-03T01:57:46.024Z,4.50
2018-10-03T02:00:16.422Z,4.53
2018-10-03T02:02:47.910Z,4.30
2018-10-03T02:05:18.295Z,5.00
2018-10-03T02:07:48.356Z,4.77
2018-10-03T02:10:19.017Z,5.00
2018-10-03T02:12:49.129Z,5.40
2018-10-03T02:15:20.918Z,5.30
2018-10-03T02:17:51.805Z,5.03
2018-10-03T02:20:22.126Z,5.97
2018-10-03T02:22:52.397Z,5.53
2018-10-03T02:25:23.413Z,5.13
2018-10-03T02:27:54.583Z,5.30
2018-10-03T02:30:25.087Z,5.63
2018-10-03T02:32:56.497Z,5.23
2018-10-03T02:35:28.048Z,5.60
2018-10-03T02:37:58.602Z,5.77
2018-10-03T02:40:28.661Z,5.57
2018-10-03T02:43:03.754Z,5.40
2018-10-03T02:45:34.703Z,5.00
2018-10-03T02:48:04.573Z,5.67
2018-10-03T02:50:35.464Z,5.17
2018-10-03T02:53:05.810Z,5.50
2018-10-03T02:55:37.629Z,4.97
2018-10-03T02:58:09.298Z,5.50
2018-10-03T03:00:39.660Z,5.60
2018-10-03T03:03:10.265Z,4.97
2018-10-03T03:05:42.042Z,5.23
2018-10-03T03:08:12.660Z,5.97
2018-10-03T03:10:42.801Z,5.27
2018-10-03T03:13:13.125Z,4.70
2018-10-03T03:15:43.367Z,4.90
2018-10-03T03:18:14.546Z,4.73
2018-10-03T03:20:45.746Z,4.80
2018-10-03T03:23:16.577Z,4.60
2018-10-03T03:25:47.673Z,4.83
2018-10-03T03:28:18.570Z,4.67
2018-10-03T03:30:55.813Z,4.63
2018-10-03T03:33:27.292Z,4.40
2018-10-03T03:35:58.702Z,4.77
2018-10-03T03:38:29.035Z,4.80
2018-10-03T03:41:00.456Z,4.63
2018-10-03T03:43:31.291Z,4.40
2018-10-03T03:46:01.487Z,5.03
2018-10-03T03:48:36.499Z,4.73
2018-10-03T03:51:08.549Z,5.00
2018-10-03T03:53:38.526Z,4.83
2018-10-03T03:56:09.205Z,5.07
2018-10-03T03:58:40.422Z,4.57
2018-10-03T04:01:11.393Z,5.30
2018-10-03T04:03:41.517Z,4.37
2018-10-03T04:06:12.979Z,5.00
2018-10-03T04:08:43.693Z,4.57
2018-10-03T04:11:14.188Z,4.87
2018-10-03T04:13:44.635Z,4.63
2018-10-03T04:16:14.946Z,4.70
2018-10-03T04:18:45.387Z,4.40
2018-10-03T04:21:16.196Z,4.63
2018-10-03T04:23:47.155Z,4.80
2018-10-03T04:26:17.302Z,4.57
2018-10-03T04:28:47.987Z,5.17
2018-10-03T04:31:19.100Z,4.83
2018-10-03T04:33:50.196Z,4.80
2018-10-03T04:36:21.575Z,5.37
2018-10-03T04:38:52.669Z,5.50
2018-10-03T04:41:27.232Z,5.37
2018-10-03T04:43:57.266Z,5.57
2018-10-03T04:46:27.476Z,5.60
2018-10-03T04:48:58.633Z,5.53
2018-10-03T04:51:28.939Z,5.77
2018-10-03T04:53:59.074Z,5.97
2018-10-03T04:56:29.568Z,5.63
2018-10-03T04:59:00.043Z,5.20
2018-10-03T05:01:30.218Z,6.00
2018-10-03T05:04:00.632Z,5.80
2018-10-03T05:06:32.276Z,5.53
2018-10-03T05:09:02.185Z,6.10
2018-10-03T05:11:32.648Z,5.30
2018-10-03T05:14:04.175Z,5.43
2018-10-03T05:16:34.275Z,5.80
2018-10-03T05:19:06.592Z,5.53
2018-10-03T05:21:37.117Z,5.97
2018-10-03T05:24:07.934Z,5.70
2018-10-03T05:26:39.397Z,5.40
2018-10-03T05:29:11.195Z,4.90
2018-10-03T05:31:41.535Z,5.67
2018-10-03T05:34:13.728Z,5.37
2018-10-03T05:36:43.878Z,5.43
2018-10-03T05:39:14.939Z,5.40
2018-10-03T05:41:45.136Z,5.40
2018-10-03T05:44:17.518Z,5.73
2018-10-03T05:46:47.864Z,4.70
2018-10-03T05:49:18.208Z,5.27
2018-10-03T05:51:49.803Z,4.90
2018-10-03T05:54:20.036Z,4.93
2018-10-03T05:56:51.965Z,5.03
2018-10-03T05:59:23.042Z,5.20
2018-10-03T06:01:53.998Z,4.97
2018-10-03T06:04:24.098Z,4.70
2018-10-03T06:06:54.248Z,4.77
2018-10-03T06:09:26.795Z,4.67
2018-10-03T06:11:57.511Z,4.40
2018-10-03T06:14:27.840Z,4.77
2018-10-03T06:16:58.462Z,4.27
2018-10-03T06:19:29.769Z,4.70
2018-10-03T06:21:59.927Z,4.67
2018-10-03T06:24:31.305Z,4.17
2018-10-03T06:27:02.072Z,5.17
2018-10-03T06:29:32.148Z,4.07
2018-10-03T06:32:02.344Z,4.07
2018-10-03T06:34:34.648Z,4.30
2018-10-03T06:37:05.226Z,3.77
2018-10-03T06:39:35.444Z,4.43
2018-10-03T06:42:06.235Z,4.10
2018-10-03T06:44:37.212Z,4.67
2018-10-03T06:47:07.583Z,4.80
2018-10-03T06:49:37.855Z,4.23
2018-10-03T06:52:09.933Z,4.03
2018-10-03T06:54:40.240Z,4.27
2018-10-03T06:57:13.129Z,4.03
2018-10-03T06:59:44.001Z,4.03
2018-10-03T07:02:13.923Z,4.47
2018-10-03T07:04:47.606Z,3.93
2018-10-03T07:07:18.248Z,4.33
2018-10-03T07:09:48.849Z,4.63
2018-10-03T07:12:19.120Z,4.83
2018-10-03T07:14:50.389Z,4.30
2018-10-03T07:17:20.617Z,5.13
2018-10-03T07:19:54.687Z,5.20
2018-10-03T07:22:26.117Z,4.53
2018-10-03T07:25:03.144Z,5.20
2018-10-03T07:27:33.638Z,4.80
2018-10-03T07:30:03.554Z,5.47
2018-10-03T07:32:35.630Z,5.60
2018-10-03T07:35:13.965Z,5.60
2018-10-03T07:37:44.566Z,4.83
2018-10-03T07:40:15.807Z,5.30
2018-10-03T07:42:47.001Z,5.67
2018-10-03T07:45:23.913Z,5.67
2018-10-03T07:47:58.833Z,5.47
2018-10-03T07:50:29.230Z,5.27
2018-10-03T07:52:59.538Z,5.50
2018-10-03T07:55:35.984Z,5.30
2018-10-03T07:58:05.829Z,5.23
2018-10-03T08:00:37.186Z,5.03
2018-10-03T08:03:13.722Z,4.73
2018-10-03T08:05:50.172Z,5.67
2018-10-03T08:08:20.825Z,4.80
2018-10-03T08:10:53.304Z,5.03
2018-10-03T08:13:27.719Z,5.27
2018-10-03T08:16:01.355Z,5.30
2018-10-03T08:18:38.344Z,5.57
2018-10-03T08:21:09.375Z,4.83
2018-10-03T08:23:40.770Z,5.23
2018-10-03T08:26:13.918Z,5.07
2018-10-03T08:28:44.788Z,4.60
2018-10-03T08:31:15.678Z,5.00
2018-10-03T08:33:46.944Z,5.30
2018-10-03T08:36:17.413Z,5.00
2018-10-03T08:38:48.593Z,4.50
2018-10-03T08:41:20.116Z,4.83
2018-10-03T08:43:50.335Z,4.13
2018-10-03T08:46:23.728Z,5.07
2018-10-03T08:48:58.519Z,4.87
2018-10-03T08:51:28.837Z,4.37
2018-10-03T08:53:59.937Z,4.10
2018-10-03T08:56:31.315Z,4.27
2018-10-03T08:59:01.498Z,4.00
2018-10-03T09:01:33.827Z,4.77
2018-10-03T09:04:04.123Z,3.87
2018-10-03T09:06:43.055Z,4.07
2018-10-03T09:09:14.176Z,4.13
2018-10-03T09:11:44.961Z,4.20
2018-10-03T09:14:18.538Z,4.10
2018-10-03T09:16:48.985Z,4.63
2018-10-03T09:19:21.723Z,4.57
2018-10-03T09:21:52.291Z,4.13
2018-10-03T09:24:24.234Z,4.60
2018-10-03T09:26:56.053Z,4.77
2018-10-03T09:29:26.599Z,4.17
2018-10-03T09:31:57.458Z,4.17
2018-10-03T09:34:33.881Z,3.97
2018-10-03T09:37:04.997Z,4.77
2018-10-03T09:39:36.237Z,4.33
2018-10-03T09:42:07.601Z,4.47
2018-10-03T09:44:40.042Z,4.30
2018-10-03T09:47:10.642Z,3.77
2018-10-03T09:49:41.113Z,4.17
2018-10-03T09:52:12.201Z,4.30
2018-10-03T09:54:42.589Z,4.30
2018-10-03T09:57:13.901Z,3.70
2018-10-03T09:59:49.938Z,4.20
2018-10-03T10:02:20.947Z,4.53
2018-10-03T10:04:51.780Z,4.10
2018-10-03T10:07:22.554Z,3.57
2018-10-03T10:09:53.936Z,3.90
2018-10-03T10:12:24.068Z,3.70
2018-10-03T10:14:54.351Z,3.33
2018-10-03T10:17:30.365Z,3.30
2018-10-03T10:20:01.353Z,3.77
2018-10-03T10:22:31.940Z,3.40
2018-10-03T10:25:03.117Z,3.60
2018-10-03T10:27:34.567Z,3.50
2018-10-03T10:30:05.036Z,3.23
2018-10-03T10:32:36.667Z,3.30
2018-10-03T10:35:07.323Z,2.83
2018-10-03T10:37:37.579Z,3.30
2018-10-03T10:40:08.111Z,3.53
2018-10-03T10:42:38.453Z,3.70
2018-10-03T10:45:10.106Z,3.40
2018-10-03T10:47:39.924Z,3.73
2018-10-03T10:50:10.297Z,3.83
2018-10-03T10:52:41.757Z,3.87
2018-10-03T10:55:17.205Z,3.33
2018-10-03T10:57:47.601Z,4.73
2018-10-03T11:00:18.741Z,3.33
2018-10-03T11:02:50.227Z,3.20
2018-10-03T11:05:25.787Z,3.57
2018-10-03T11:07:57.108Z,3.70
2018-10-03T11:10:29.887Z,3.57
2018-10-03T11:13:03.288Z,4.50
2018-10-03T11:15:38.091Z,4.83
2018-10-03T11:18:09.420Z,4.77
2018-10-03T11:20:44.415Z,5.20
2018-10-03T11:23:19.296Z,5.37
2018-10-03T11:25:50.058Z,4.63
2018-10-03T11:28:21.707Z,5.00
2018-10-03T11:30:52.584Z,5.07
2018-10-03T11:33:31.478Z,4.93
2018-10-03T11:36:01.515Z,4.80
2018-10-03T11:38:31.563Z,4.77
2018-10-03T11:41:03.145Z,5.17
2018-10-03T11:43:33.209Z,4.90
2018-10-03T11:46:03.355Z,4.67
2018-10-03T11:48:35.435Z,4.97
2018-10-03T11:51:05.851Z,4.73
2018-10-03T11:53:36.800Z,4.57
2018-10-03T11:56:12.031Z,4.27
2018-10-03T11:58:42.689Z,3.80
2018-10-03T12:01:13.846Z,4.23
2018-10-03T12:03:44.560Z,3.97
2018-10-03T12:06:15.196Z,4.60
2018-10-03T12:08:45.348Z,3.90
2018-10-03T12:11:15.861Z,3.57
2018-10-03T12:13:46.978Z,3.93
2018-10-03T12:16:19.411Z,3.53
2018-10-03T12:18:50.030Z,3.60
2018-10-03T12:21:20.469Z,3.23
2018-10-03T12:23:50.564Z,3.30
2018-10-03T12:26:21.955Z,3.90
2018-10-03T12:28:51.861Z,3.60
2018-10-03T12:31:23.459Z,3.50
2018-10-03T12:33:55.275Z,3.20
2018-10-03T12:36:26.852Z,3.33
2018-10-03T12:39:01.762Z,2.77
2018-10-03T12:41:34.105Z,2.90
2018-10-03T12:44:17.122Z,3.23
2018-10-03T12:46:49.675Z,3.00
2018-10-03T12:49:22.736Z,3.80
2018-10-03T12:51:53.412Z,3.60
2018-10-03T12:54:24.475Z,2.97
2018-10-03T12:56:55.890Z,3.43
2018-10-03T12:59:26.908Z,3.50
2018-10-03T13:01:58.109Z,2.97
2018-10-03T13:04:28.943Z,3.33
2018-10-03T13:07:02.409Z,3.63
2018-10-03T13:09:32.984Z,3.20
2018-10-03T13:12:09.262Z,3.30
2018-10-03T13:14:43.921Z,3.50
2018-10-03T13:17:16.235Z,3.57
2018-10-03T13:19:47.558Z,3.40
2018-10-03T13:22:18.536Z,3.37
2018-10-03T13:24:52.903Z,3.33
2018-10-03T13:27:23.685Z,3.23
2018-10-03T13:29:58.858Z,2.83
2018-10-03T13:32:38.495Z,3.40
2018-10-03T13:35:10.092Z,3.30
2018-10-03T13:37:39.956Z,3.20
2018-10-03T13:40:10.480Z,3.10
2018-10-03T13:42:40.839Z,3.07
2018-10-03T13:45:17.437Z,2.40
2018-10-03T13:47:48.487Z,2.77
2018-10-03T13:50:18.460Z,2.77
2018-10-03T13:52:51.108Z,3.03
2018-10-03T13:55:22.019Z,2.80
2018-10-03T13:57:51.853Z,3.67
2018-10-03T14:00:24.520Z,3.53
2018-10-03T14:02:54.346Z,3.50
2018-10-03T14:05:31.667Z,3.87
2018-10-03T14:08:02.679Z,3.90
2018-10-03T14:10:34.129Z,3.63
2018-10-03T14:13:04.889Z,4.07
2018-10-03T14:15:35.320Z,3.73
2018-10-03T14:18:06.107Z,3.77
2018-10-03T14:20:36.974Z,3.17
2018-10-03T14:23:08.881Z,3.43
2018-10-03T14:25:40.516Z,3.60
2018-10-03T14:28:11.652Z,3.50
2018-10-03T14:30:43.160Z,3.53
2018-10-03T14:33:13.807Z,3.83
2018-10-03T14:35:45.158Z,2.90
2018-10-03T14:38:17.930Z,3.27
2018-10-03T14:40:48.765Z,3.30
2018-10-03T14:43:20.393Z,3.23
2018-10-03T14:45:54.682Z,2.90
2018-10-03T14:48:24.734Z,4.07
2018-10-03T14:50:54.840Z,3.87
2018-10-03T14:53:26.259Z,3.20
2018-10-03T14:55:56.754Z,2.73
2018-10-03T14:58:27.297Z,3.77
2018-10-03T15:00:57.795Z,3.70
2018-10-03T15:03:28.835Z,3.23
2018-10-03T15:05:59.508Z,3.37
2018-10-03T15:08:31.221Z,3.23
2018-10-03T15:11:04.032Z,3.03
2018-10-03T15:13:34.607Z,3.30
2018-10-03T15:16:04.565Z,3.73
2018-10-03T15:18:40.206Z,3.60
2018-10-03T15:21:19.003Z,3.37
2018-10-03T15:23:49.490Z,3.43
2018-10-03T15:26:19.780Z,3.53
2018-10-03T15:28:50.570Z,3.30
2018-10-03T15:31:21.264Z,4.00
2018-10-03T15:33:52.423Z,3.03
2018-10-03T15:36:26.219Z,3.50
2018-10-03T15:38:57.399Z,4.00
2018-10-03T15:41:30.056Z,3.23
2018-10-03T15:44:01.467Z,3.13
2018-10-03T15:46:31.410Z,3.57
2018-10-03T15:49:02.602Z,2.90
2018-10-03T15:51:32.624Z,3.90
2018-10-03T15:54:03.260Z,4.37
2018-10-03T15:56:33.873Z,4.07
2018-10-03T15:59:07.363Z,3.63
2018-10-03T16:01:37.263Z,3.80
2018-10-03T16:04:07.145Z,3.67
2018-10-03T16:06:37.269Z,3.50
2018-10-03T16:09:09.751Z,3.50
2018-10-03T16:11:44.416Z,4.23
2018-10-03T16:14:17.413Z,3.80
2018-10-03T16:16:48.187Z,3.27
2018-10-03T16:19:19.074Z,3.63
2018-10-03T16:21:49.405Z,3.87
2018-10-03T16:24:19.884Z,3.40
2018-10-03T16:26:49.947Z,3.70
2018-10-03T16:29:21.424Z,3.50
2018-10-03T16:31:56.783Z,3.40
2018-10-03T16:34:27.661Z,3.67
2018-10-03T16:36:58.085Z,3.40
2018-10-03T16:39:28.712Z,4.17
2018-10-03T16:41:59.009Z,3.57
2018-10-03T16:44:29.977Z,4.73
2018-10-03T16:47:01.551Z,3.77
2018-10-03T16:49:32.479Z,4.13
2018-10-03T16:52:02.389Z,5.07
2018-10-03T16:54:32.543Z,4.60
2018-10-03T16:57:03.178Z,4.37
2018-10-03T16:59:33.263Z,4.57
2018-10-03T17:02:03.379Z,4.47
2018-10-03T17:04:34.520Z,3.87
2018-10-03T17:07:05.534Z,4.60
2018-10-03T17:09:35.933Z,6.37
2018-10-03T17:12:06.849Z,6.50
2018-10-03T17:14:39.194Z,5.10
2018-10-03T17:17:10.033Z,6.53
2018-10-03T17:19:40.714Z,4.73
2018-10-03T17:22:11.349Z,5.07
2018-10-03T17:24:42.482Z,5.00
2018-10-03T17:27:13.702Z,5.33
2018-10-03T17:29:45.116Z,4.93
2018-10-03T17:32:15.523Z,4.97
2018-10-03T17:34:50.197Z,4.77
2018-10-03T17:37:21.902Z,4.50
2018-10-03T17:39:52.942Z,4.37
2018-10-03T17:42:23.721Z,4.50
2018-10-03T17:44:54.686Z,4.00
2018-10-03T17:47:27.343Z,4.00
2018-10-03T17:49:58.975Z,4.30
2018-10-03T17:52:30.016Z,4.23
2018-10-03T17:55:01.204Z,4.20
2018-10-03T17:57:31.601Z,4.53
2018-10-03T18:00:01.943Z,4.10
2018-10-03T18:02:33.326Z,4.47
2018-10-03T18:05:05.997Z,6.60
2018-10-03T18:07:38.519Z,3.40
2018-10-03T18:10:10.171Z,7.17
2018-10-03T18:12:41.394Z,5.23
2018-10-03T18:15:12.204Z,5.27
2018-10-03T18:17:43.719Z,3.93
2018-10-03T18:20:14.580Z,4.90
2018-10-03T18:22:46.596Z,4.43
2018-10-03T18:25:17.667Z,4.33
2018-10-03T18:27:48.759Z,4.83
2018-10-03T18:30:21.369Z,5.07
2018-10-03T18:32:52.615Z,4.83
2018-10-03T18:35:24.818Z,4.87
2018-10-03T18:38:04.809Z,4.73
2018-10-03T18:40:53.596Z,5.23
2018-10-03T18:43:35.953Z,5.90
2018-10-03T18:46:18.012Z,6.50
2018-10-03T18:48:52.408Z,5.53
2018-10-03T18:51:25.419Z,5.10
2018-10-03T18:53:57.420Z,5.47
2018-10-03T18:56:31.123Z,5.93
2018-10-03T18:59:05.005Z,4.67
2018-10-03T19:01:39.044Z,4.57
2018-10-03T19:04:13.989Z,4.03
2018-10-03T19:06:44.371Z,3.87
2018-10-03T19:09:15.035Z,5.17
2018-10-03T19:11:48.795Z,4.03
2018-10-03T19:14:19.521Z,4.63
2018-10-03T19:16:50.057Z,4.90
2018-10-03T19:19:21.761Z,4.73
2018-10-03T19:21:54.439Z,5.17
2018-10-03T19:24:25.869Z,4.93
2018-10-03T19:26:56.242Z,4.63
2018-10-03T19:29:28.557Z,4.43
2018-10-03T19:31:59.287Z,3.77
2018-10-03T19:34:29.800Z,4.47
2018-10-03T19:37:00.461Z,3.93
2018-10-03T19:39:32.821Z,4.70
2018-10-03T19:42:03.430Z,3.53
2018-10-03T19:44:33.359Z,4.03
2018-10-03T19:47:05.798Z,3.43
2018-10-03T19:49:36.434Z,4.13
2018-10-03T19:52:07.835Z,4.17
2018-10-03T19:54:39.342Z,3.97
2018-10-03T19:57:10.159Z,3.90
2018-10-03T19:59:41.210Z,4.03
2018-10-03T20:02:13.561Z,3.93
2018-10-03T20:04:44.790Z,5.47
2018-10-03T20:07:16.499Z,4.30
2018-10-03T20:09:47.695Z,4.60
2018-10-03T20:12:19.384Z,4.53
2018-10-03T20:14:51.929Z,5.07
2018-10-03T20:17:24.171Z,4.43
2018-10-03T20:19:55.262Z,4.37
2018-10-03T20:22:30.137Z,5.47
2018-10-03T20:25:01.004Z,4.90
2018-10-03T20:27:32.967Z,4.37
2018-10-03T20:30:08.364Z,4.90
2018-10-03T20:32:38.525Z,4.80
2018-10-03T20:35:09.618Z,4.40
2018-10-03T20:37:39.971Z,4.33
2018-10-03T20:40:11.322Z,4.50
2018-10-03T20:42:41.968Z,4.83
2018-10-03T20:45:12.234Z,5.00
2018-10-03T20:47:43.887Z,4.37
2018-10-03T20:50:15.403Z,4.40
2018-10-03T20:52:46.635Z,5.63
2018-10-03T20:55:16.998Z,4.17
2018-10-03T20:57:48.185Z,5.17
2018-10-03T21:00:18.867Z,4.47
2018-10-03T21:03:09.754Z,4.83
2018-10-03T21:06:01.808Z,4.10
2018-10-03T21:08:36.713Z,4.53
2018-10-03T21:11:17.384Z,4.87
2018-10-03T21:13:48.491Z,4.40
2018-10-03T21:16:19.963Z,5.57
2018-10-03T21:18:51.526Z,4.00
2018-10-03T21:21:24.323Z,4.73
2018-10-03T21:23:57.218Z,4.47
2018-10-03T21:26:27.677Z,4.53
2018-10-03T21:28:57.501Z,4.10
2018-10-03T21:31:31.938Z,4.63
2018-10-03T21:34:03.690Z,4.33
2018-10-03T21:36:34.455Z,4.80
2018-10-03T21:39:06.185Z,4.97
2018-10-03T21:41:38.526Z,5.03
2018-10-03T21:44:08.373Z,4.73
2018-10-03T21:46:39.819Z,4.73
2018-10-03T21:49:10.457Z,4.63
2018-10-03T21:51:42.127Z,4.27
2018-10-03T21:54:13.341Z,4.50
2018-10-03T21:56:44.181Z,4.83
2018-10-03T21:59:16.103Z,4.43
2018-10-03T22:01:47.391Z,4.50
2018-10-03T22:04:19.282Z,5.40
2018-10-03T22:07:09.642Z,5.27
2018-10-03T22:09:45.061Z,4.60
2018-10-03T22:12:15.376Z,4.63
2018-10-03T22:14:50.387Z,3.93
2018-10-03T22:17:24.494Z,4.23
2018-10-03T22:20:00.585Z,4.37
2018-10-03T22:22:51.751Z,4.23
2018-10-03T22:25:23.183Z,4.13
2018-10-03T22:27:54.397Z,4.20
2018-10-03T22:30:25.018Z,3.90
2018-10-03T22:32:57.047Z,4.13
2018-10-03T22:35:29.575Z,4.33
2018-10-03T22:38:03.423Z,4.20
2018-10-03T22:40:33.475Z,4.70
2018-10-03T22:43:08.435Z,4.50
2018-10-03T22:45:38.935Z,5.00
2018-10-03T22:48:11.251Z,4.73
2018-10-03T22:50:48.300Z,4.90
2018-10-03T22:53:29.893Z,4.97
2018-10-03T22:56:01.882Z,5.10
2018-10-03T22:58:32.625Z,5.57
2018-10-03T23:01:03.367Z,5.70
2018-10-03T23:03:33.798Z,6.07
2018-10-03T23:06:06.242Z,5.67
2018-10-03T23:08:36.776Z,6.47
2018-10-03T23:11:08.082Z,6.20
2018-10-03T23:13:39.048Z,6.13
2018-10-03T23:16:10.616Z,5.90
2018-10-03T23:18:40.871Z,6.47
2018-10-03T23:21:11.625Z,6.50
2018-10-03T23:23:42.015Z,7.07
2018-10-03T23:26:12.691Z,6.37
2018-10-03T23:28:43.246Z,7.53
2018-10-03T23:31:16.078Z,6.50
2018-10-03T23:33:47.016Z,6.53
2018-10-03T23:36:17.111Z,6.87
2018-10-03T23:38:49.006Z,5.97
2018-10-03T23:41:20.364Z,5.60
2018-10-03T23:43:53.907Z,5.90
2018-10-03T23:46:24.461Z,5.63
2018-10-03T23:48:55.995Z,5.60
2018-10-03T23:51:27.483Z,5.70
2018-10-03T23:53:58.829Z,5.10
2018-10-03T23:56:29.137Z,5.30
2018-10-03T23:58:59.586Z,5.40
